首页
METAR-TAF:

METAR-TAF

机场 :

Fort Nelson, 不列颠哥伦比亚, 加拿大

纬度: 58-50N, 经度: 122-35W, 海拔: 382米

当前天气观测

该预报发布于37分钟前的19:00 UTC
风速4节,风向西北
温度 -16°C
湿度 78%
气压 999 hPa
能見度: 48.3公里
多云层高于1600英尺
阴天层高于9600英尺

METAR: CYYE 171900Z 31004KT 30SM BKN016 OVC096 M16/M19 A2950 RMK SC6AC2 SLP028

时间: 11:37 (19:37 UTC)

预报

该预报发布于59分钟前的18:38 UTC
预报有效从17日的 19点(UTC)到 18日的 07点(UTC)
风速5节,风向西
能見度: 10公里
散云层高于1500英尺
阴天层高于3000英尺
小雪
短暂存在
从 17日的 19点(UTC)到 17日的 24点(UTC)
能見度: 6.4公里
阴天层高于1500英尺
小雪, 冰粒
从 18日的 0000点(UTC)
风速6节,风向西北
能見度: 10公里
散云层高于2000英尺
多云层高于7000英尺
几率 30%
从 18日的 00点(UTC)到 18日的 02点(UTC)
能見度: 9.7公里
(小) 冰粒, 轻雾

TAF: CYYE 171838Z 1719/1807 28005KT P6SM -SN SCT015 OVC030 TEMPO 1719/1724 4SM -SNPL OVC015 FM180000 31006KT P6SM SCT020 BKN070 PROB30 1800/1802 6SM -PL BR RMK NXT FCST BY 180100Z

超过4000个机场的气象观测和天气预报(METAR&TAF报告)。

可查询的气象台以黄色和红色小点在地图上表示。

将鼠标移到小点上方,可查看气象台名称。

然后点击查看天气观测和预报。

如需切换地图:点击带黑十字的绿色按钮放大地图;点击带横线的绿色按钮缩小地图;或者点击绿色箭头查看邻近地区的地图。


METAR-TAF: